createdAt,value
2019-05-18T00:00:23.088Z,0.00
2019-05-18T00:01:23.023Z,0.00
2019-05-18T00:02:22.989Z,0.00
2019-05-18T00:03:22.963Z,0.00
2019-05-18T00:04:22.947Z,0.00
2019-05-18T00:05:22.909Z,0.00
2019-05-18T00:06:22.866Z,0.00
2019-05-18T00:07:22.833Z,0.00
2019-05-18T00:08:22.808Z,0.00
2019-05-18T00:09:22.769Z,0.00
2019-05-18T00:10:22.739Z,0.00
2019-05-18T00:11:22.708Z,0.00
2019-05-18T00:12:22.692Z,0.00
2019-05-18T00:13:22.657Z,0.00
2019-05-18T00:14:22.639Z,0.00
2019-05-18T00:15:22.585Z,0.00
2019-05-18T00:16:22.552Z,0.00
2019-05-18T00:17:25.181Z,0.00
2019-05-18T00:18:22.482Z,0.00
2019-05-18T00:19:22.552Z,0.00
2019-05-18T00:20:22.428Z,0.00
2019-05-18T00:21:22.405Z,0.00
2019-05-18T00:22:22.354Z,0.00
2019-05-18T00:23:22.329Z,0.00
2019-05-18T00:24:22.293Z,0.00
2019-05-18T00:25:22.270Z,0.00
2019-05-18T00:26:22.227Z,0.00
2019-05-18T00:27:22.208Z,0.00
2019-05-18T00:28:22.177Z,0.00
2019-05-18T00:29:22.160Z,0.00
2019-05-18T00:30:22.112Z,0.00
2019-05-18T00:31:22.081Z,0.00
2019-05-18T00:32:22.041Z,0.00
2019-05-18T00:33:22.021Z,0.00
2019-05-18T00:34:21.991Z,0.00
2019-05-18T00:35:21.947Z,0.00
2019-05-18T00:36:21.921Z,0.00
2019-05-18T00:37:22.021Z,0.00
2019-05-18T00:38:21.861Z,0.00
2019-05-18T00:39:21.854Z,0.00
2019-05-18T00:40:21.801Z,0.00
2019-05-18T00:41:21.945Z,0.00
2019-05-18T00:42:21.729Z,0.00
2019-05-18T00:43:21.706Z,0.00
2019-05-18T00:44:21.667Z,0.00
2019-05-18T00:45:21.637Z,0.00
2019-05-18T00:46:21.606Z,0.00
2019-05-18T00:47:21.576Z,0.00
2019-05-18T00:48:21.536Z,0.00
2019-05-18T00:49:21.510Z,0.00
2019-05-18T00:50:21.506Z,0.00
2019-05-18T00:51:23.285Z,0.00
2019-05-18T00:52:21.426Z,0.00
2019-05-18T00:53:21.378Z,0.00
2019-05-18T00:54:21.347Z,0.00
2019-05-18T00:55:21.327Z,0.00
2019-05-18T00:56:21.279Z,0.00
2019-05-18T00:57:21.250Z,0.00
2019-05-18T00:58:21.315Z,0.00
2019-05-18T00:59:21.185Z,0.00
2019-05-18T01:00:21.151Z,0.00
2019-05-18T01:01:21.154Z,0.00
2019-05-18T01:02:21.096Z,0.00
2019-05-18T01:03:21.063Z,0.00
2019-05-18T01:04:21.045Z,0.00
2019-05-18T01:05:20.995Z,0.00
2019-05-18T01:06:20.964Z,0.00
2019-05-18T01:07:20.936Z,0.00
2019-05-18T01:08:20.914Z,0.00
2019-05-18T01:09:20.874Z,0.00
2019-05-18T01:10:20.837Z,0.00
2019-05-18T01:11:20.816Z,0.00
2019-05-18T01:12:20.824Z,0.00
2019-05-18T01:13:20.772Z,0.00
2019-05-18T01:14:20.712Z,0.00
2019-05-18T01:15:20.677Z,0.00
2019-05-18T01:16:20.639Z,0.00
2019-05-18T01:17:20.612Z,0.00
2019-05-18T01:18:20.581Z,0.00
2019-05-18T01:19:20.550Z,0.00
2019-05-18T01:20:20.517Z,0.00
2019-05-18T01:21:20.487Z,0.00
2019-05-18T01:22:20.501Z,0.00
2019-05-18T01:23:20.423Z,0.00
2019-05-18T01:24:20.393Z,0.00
2019-05-18T01:25:20.357Z,0.00
2019-05-18T01:26:20.330Z,0.00
2019-05-18T01:27:20.286Z,0.00
2019-05-18T01:28:20.256Z,0.00
2019-05-18T01:29:20.232Z,0.00
2019-05-18T01:30:20.195Z,0.00
2019-05-18T01:31:20.174Z,0.00
2019-05-18T01:32:20.156Z,0.00
2019-05-18T01:33:20.101Z,0.00
2019-05-18T01:34:20.069Z,0.00
2019-05-18T01:35:20.045Z,0.00
2019-05-18T01:36:20.003Z,0.00
2019-05-18T01:37:20.009Z,0.00
2019-05-18T01:38:19.939Z,0.00
2019-05-18T01:39:19.902Z,0.00
2019-05-18T01:40:19.870Z,0.00
2019-05-18T01:41:19.839Z,0.00
2019-05-18T01:42:19.820Z,0.00
2019-05-18T01:43:19.776Z,0.00
2019-05-18T01:44:19.743Z,0.00
2019-05-18T01:45:19.713Z,0.00
2019-05-18T01:46:19.676Z,0.00
2019-05-18T01:47:19.643Z,0.00
2019-05-18T01:48:19.615Z,0.00
2019-05-18T01:49:19.581Z,0.00
2019-05-18T01:50:19.552Z,0.00
2019-05-18T01:51:19.516Z,0.00
2019-05-18T01:52:19.493Z,0.00
2019-05-18T01:53:19.456Z,0.00
2019-05-18T01:54:19.423Z,0.00
2019-05-18T01:55:19.389Z,0.00
2019-05-18T01:56:19.358Z,0.00
2019-05-18T01:57:19.331Z,0.00
2019-05-18T01:58:19.298Z,0.00
2019-05-18T01:59:19.266Z,0.00
2019-05-18T02:00:19.243Z,0.00
2019-05-18T02:01:19.202Z,0.00
2019-05-18T02:02:19.163Z,0.00
2019-05-18T02:03:19.128Z,0.00
2019-05-18T02:04:19.101Z,0.00
2019-05-18T02:05:19.070Z,0.00
2019-05-18T02:06:19.043Z,0.00
2019-05-18T02:07:19.002Z,0.00
2019-05-18T02:08:18.978Z,0.00
2019-05-18T02:09:18.940Z,0.00
2019-05-18T02:10:18.906Z,0.00
2019-05-18T02:11:18.881Z,0.00
2019-05-18T02:12:18.850Z,0.00
2019-05-18T02:13:18.806Z,0.00
2019-05-18T02:14:18.773Z,0.00
2019-05-18T02:15:18.740Z,0.00
2019-05-18T02:16:18.713Z,0.00
2019-05-18T02:17:18.680Z,0.00
2019-05-18T02:18:28.731Z,0.00
2019-05-18T02:19:18.619Z,0.00
2019-05-18T02:20:18.585Z,0.00
2019-05-18T02:21:18.549Z,0.00
2019-05-18T02:22:18.518Z,0.00
2019-05-18T02:23:18.489Z,0.00
2019-05-18T02:24:18.486Z,0.00
2019-05-18T02:25:18.419Z,0.00
2019-05-18T02:26:18.397Z,0.00
2019-05-18T02:27:18.360Z,0.00
2019-05-18T02:28:18.325Z,0.00
2019-05-18T02:29:18.295Z,0.00
2019-05-18T02:30:18.261Z,0.00
2019-05-18T02:31:18.229Z,0.00
2019-05-18T02:32:18.201Z,0.00
2019-05-18T02:33:18.171Z,0.00
2019-05-18T02:34:18.133Z,0.00
2019-05-18T02:35:18.103Z,0.00
2019-05-18T02:36:18.069Z,0.00
2019-05-18T02:37:18.070Z,0.00
2019-05-18T02:38:18.005Z,0.00
2019-05-18T02:39:17.993Z,0.00
2019-05-18T02:40:17.937Z,0.00
2019-05-18T02:41:17.912Z,0.00
2019-05-18T02:42:17.915Z,0.00
2019-05-18T02:43:17.840Z,0.00
2019-05-18T02:44:17.815Z,0.00
2019-05-18T02:45:17.782Z,0.00
2019-05-18T02:46:17.754Z,0.00
2019-05-18T02:47:17.715Z,0.00
2019-05-18T02:48:17.683Z,0.00
2019-05-18T02:49:17.647Z,0.00
2019-05-18T02:50:17.624Z,0.00
2019-05-18T02:51:17.584Z,0.00
2019-05-18T02:52:17.572Z,0.00
2019-05-18T02:53:17.524Z,0.00
2019-05-18T02:54:17.486Z,0.00
2019-05-18T02:55:17.463Z,0.00
2019-05-18T02:56:17.423Z,0.00
2019-05-18T02:57:17.396Z,0.00
2019-05-18T02:58:17.367Z,0.00
2019-05-18T02:59:17.340Z,0.00
2019-05-18T03:00:17.378Z,0.00
2019-05-18T03:01:17.281Z,0.00
2019-05-18T03:02:17.236Z,0.00
2019-05-18T03:03:17.209Z,0.00
2019-05-18T03:04:17.180Z,0.00
2019-05-18T03:05:17.145Z,0.00
2019-05-18T03:06:17.108Z,0.00
2019-05-18T03:07:17.076Z,0.00
2019-05-18T03:08:17.049Z,0.00
2019-05-18T03:09:17.005Z,0.00
2019-05-18T03:10:16.983Z,0.00
2019-05-18T03:11:16.945Z,4.00
2019-05-18T03:12:16.915Z,0.00
2019-05-18T03:13:16.893Z,0.00
2019-05-18T03:14:16.848Z,4.00
2019-05-18T03:15:16.817Z,4.00
2019-05-18T03:16:16.787Z,0.00
2019-05-18T03:17:16.752Z,4.00
2019-05-18T03:18:16.730Z,4.00
2019-05-18T03:19:16.694Z,4.00
2019-05-18T03:20:16.651Z,4.00
2019-05-18T03:21:16.624Z,8.00
2019-05-18T03:22:16.595Z,4.00
2019-05-18T03:23:16.568Z,8.00
2019-05-18T03:24:16.541Z,4.00
2019-05-18T03:25:16.502Z,8.00
2019-05-18T03:26:16.470Z,8.00
2019-05-18T03:27:16.430Z,12.00
2019-05-18T03:28:16.405Z,12.00
2019-05-18T03:29:16.386Z,16.00
2019-05-18T03:30:16.345Z,16.00
2019-05-18T03:31:16.310Z,16.00
2019-05-18T03:32:16.285Z,20.00
2019-05-18T03:33:16.257Z,20.00
2019-05-18T03:34:16.210Z,24.00
2019-05-18T03:35:16.183Z,24.00
2019-05-18T03:36:16.145Z,28.00
2019-05-18T03:37:16.117Z,28.00
2019-05-18T03:38:16.080Z,32.00
2019-05-18T03:39:16.049Z,36.00
2019-05-18T03:40:16.015Z,40.00
2019-05-18T03:41:15.993Z,48.00
2019-05-18T03:42:15.952Z,52.00
2019-05-18T03:43:15.934Z,64.00
2019-05-18T03:44:15.891Z,68.00
2019-05-18T03:45:15.869Z,72.00
2019-05-18T03:46:15.830Z,80.00
2019-05-18T03:47:15.793Z,84.00
2019-05-18T03:48:15.768Z,92.00
2019-05-18T03:49:26.265Z,100.00
2019-05-18T03:50:15.696Z,116.00
2019-05-18T03:51:15.670Z,144.00
2019-05-18T03:52:15.635Z,172.00
2019-05-18T03:53:18.104Z,204.00
2019-05-18T03:54:15.570Z,220.00
2019-05-18T03:55:15.539Z,224.00
2019-05-18T03:56:15.504Z,248.00
2019-05-18T03:57:15.477Z,264.00
2019-05-18T03:58:15.441Z,280.00
2019-05-18T03:59:15.407Z,288.00
2019-05-18T04:00:15.378Z,288.00
2019-05-18T04:01:15.367Z,288.00
2019-05-18T04:02:15.313Z,300.00
2019-05-18T04:03:15.292Z,320.00
2019-05-18T04:04:18.420Z,344.00
2019-05-18T04:05:15.231Z,384.00
2019-05-18T04:06:15.189Z,404.00
2019-05-18T04:07:15.158Z,412.00
2019-05-18T04:08:15.126Z,424.00
2019-05-18T04:09:15.102Z,432.00
2019-05-18T04:10:15.070Z,444.00
2019-05-18T04:11:15.029Z,452.00
2019-05-18T04:12:15.003Z,456.00
2019-05-18T04:13:14.968Z,464.00
2019-05-18T04:14:14.932Z,476.00
2019-05-18T04:15:14.926Z,492.00
2019-05-18T04:16:14.870Z,520.00
2019-05-18T04:17:14.839Z,552.00
2019-05-18T04:18:14.811Z,588.00
2019-05-18T04:19:14.779Z,628.00
2019-05-18T04:20:14.744Z,664.00
2019-05-18T04:21:14.711Z,704.00
2019-05-18T04:22:14.687Z,756.00
2019-05-18T04:23:14.652Z,820.00
2019-05-18T04:24:14.621Z,888.00
2019-05-18T04:25:14.585Z,944.00
2019-05-18T04:26:14.555Z,992.00
2019-05-18T04:27:14.528Z,1020.00
2019-05-18T04:28:14.498Z,1020.00
2019-05-18T04:29:14.459Z,1016.00
2019-05-18T04:30:14.448Z,1012.00
2019-05-18T04:31:14.389Z,992.00
2019-05-18T04:32:14.373Z,972.00
2019-05-18T04:33:14.332Z,956.00
2019-05-18T04:34:14.306Z,964.00
2019-05-18T04:35:14.267Z,1000.00
2019-05-18T04:36:14.241Z,1044.00
2019-05-18T04:37:14.200Z,1088.00
2019-05-18T04:38:14.170Z,1132.00
2019-05-18T04:39:14.135Z,1188.00
2019-05-18T04:40:14.110Z,1268.00
2019-05-18T04:41:14.081Z,1304.00
2019-05-18T04:42:14.064Z,1356.00
2019-05-18T04:43:14.017Z,1512.00
2019-05-18T04:44:13.977Z,1596.00
2019-05-18T04:45:13.947Z,1700.00
2019-05-18T04:46:13.927Z,1772.00
2019-05-18T04:47:13.887Z,1812.00
2019-05-18T04:48:13.856Z,1840.00
2019-05-18T04:49:13.821Z,1840.00
2019-05-18T04:50:13.792Z,1880.00
2019-05-18T04:51:13.775Z,1956.00
2019-05-18T04:52:13.738Z,2032.00
2019-05-18T04:53:13.699Z,2076.00
2019-05-18T04:54:13.674Z,2152.00
2019-05-18T04:55:13.637Z,2240.00
2019-05-18T04:56:13.602Z,2280.00
2019-05-18T04:57:13.611Z,2320.00
2019-05-18T04:58:13.544Z,2316.00
2019-05-18T04:59:13.518Z,2304.00
2019-05-18T05:00:13.513Z,2272.00
2019-05-18T05:01:13.449Z,2228.00
2019-05-18T05:02:13.417Z,2144.00
2019-05-18T05:03:13.380Z,2060.00
2019-05-18T05:04:13.349Z,1980.00
2019-05-18T05:05:13.328Z,1896.00
2019-05-18T05:06:13.305Z,1800.00
2019-05-18T05:07:13.268Z,1696.00
2019-05-18T05:08:13.254Z,1644.00
2019-05-18T05:09:13.198Z,1592.00
2019-05-18T05:10:13.161Z,1548.00
2019-05-18T05:11:13.137Z,1512.00
2019-05-18T05:12:13.109Z,1492.00
2019-05-18T05:13:13.072Z,1484.00
2019-05-18T05:14:13.053Z,1488.00
2019-05-18T05:15:13.005Z,1480.00
2019-05-18T05:16:12.978Z,1464.00
2019-05-18T05:17:12.948Z,1448.00
2019-05-18T05:18:12.916Z,1436.00
2019-05-18T05:19:12.886Z,1428.00
2019-05-18T05:20:19.822Z,1432.00
2019-05-18T05:21:12.861Z,1436.00
2019-05-18T05:22:12.796Z,1440.00
2019-05-18T05:23:12.764Z,1436.00
2019-05-18T05:24:12.751Z,1436.00
2019-05-18T05:25:12.701Z,1428.00
2019-05-18T05:26:12.669Z,1424.00
2019-05-18T05:27:12.643Z,1432.00
2019-05-18T05:28:12.599Z,1456.00
2019-05-18T05:29:12.573Z,1468.00
2019-05-18T05:30:12.615Z,1480.00
2019-05-18T05:31:12.528Z,1504.00
2019-05-18T05:32:12.502Z,1528.00
2019-05-18T05:33:12.499Z,1564.00
2019-05-18T05:34:12.427Z,1596.00
2019-05-18T05:35:12.444Z,1628.00
2019-05-18T05:36:12.380Z,1660.00
2019-05-18T05:37:12.339Z,1696.00
2019-05-18T05:38:12.288Z,1724.00
2019-05-18T05:39:12.263Z,1748.00
2019-05-18T05:40:12.231Z,1760.00
2019-05-18T05:41:16.480Z,1780.00
2019-05-18T05:42:12.172Z,1808.00
2019-05-18T05:43:12.226Z,1844.00
2019-05-18T05:44:12.105Z,1876.00
2019-05-18T05:45:12.071Z,1908.00
2019-05-18T05:46:12.040Z,1924.00
2019-05-18T05:47:12.013Z,1944.00
2019-05-18T05:48:11.974Z,1996.00
2019-05-18T05:49:11.952Z,2036.00
2019-05-18T05:50:11.916Z,2080.00
2019-05-18T05:51:11.905Z,2104.00
2019-05-18T05:52:11.857Z,2112.00
2019-05-18T05:53:11.829Z,2104.00
2019-05-18T05:54:11.794Z,2096.00
2019-05-18T05:55:11.767Z,2088.00
2019-05-18T05:56:11.733Z,2104.00
2019-05-18T05:57:11.709Z,2092.00
2019-05-18T05:58:11.665Z,2148.00
2019-05-18T05:59:11.638Z,2096.00
2019-05-18T06:00:11.615Z,2112.00
2019-05-18T06:01:11.580Z,2148.00
2019-05-18T06:02:11.547Z,2172.00
2019-05-18T06:03:11.513Z,2184.00
2019-05-18T06:04:11.487Z,2188.00
2019-05-18T06:05:11.456Z,2192.00
2019-05-18T06:06:11.428Z,2196.00
2019-05-18T06:07:11.390Z,2196.00
2019-05-18T06:08:11.360Z,2200.00
2019-05-18T06:09:11.333Z,2216.00
2019-05-18T06:10:11.303Z,2236.00
2019-05-18T06:11:11.267Z,2268.00
2019-05-18T06:12:11.247Z,2308.00
2019-05-18T06:13:11.217Z,2356.00
2019-05-18T06:14:11.175Z,2404.00
2019-05-18T06:15:11.185Z,2452.00
2019-05-18T06:16:11.158Z,2512.00
2019-05-18T06:17:11.081Z,2576.00
2019-05-18T06:18:11.142Z,2644.00
2019-05-18T06:19:11.069Z,2696.00
2019-05-18T06:20:11.025Z,2744.00
2019-05-18T06:21:11.008Z,2808.00
2019-05-18T06:22:11.022Z,2856.00
2019-05-18T06:23:10.929Z,2876.00
2019-05-18T06:24:10.867Z,2896.00
2019-05-18T06:25:10.857Z,2884.00
2019-05-18T06:26:10.813Z,2904.00
2019-05-18T06:27:10.782Z,2920.00
2019-05-18T06:28:10.742Z,3040.00
2019-05-18T06:29:10.718Z,2996.00
2019-05-18T06:30:10.702Z,3036.00
2019-05-18T06:31:10.656Z,3084.00
2019-05-18T06:32:10.626Z,3096.00
2019-05-18T06:33:10.598Z,3116.00
2019-05-18T06:34:10.561Z,3120.00
2019-05-18T06:35:10.533Z,3104.00
2019-05-18T06:36:10.507Z,3040.00
2019-05-18T06:37:10.474Z,3000.00
2019-05-18T06:38:10.484Z,2952.00
2019-05-18T06:39:10.410Z,2912.00
2019-05-18T06:40:10.387Z,2920.00
2019-05-18T06:41:10.356Z,2940.00
2019-05-18T06:42:10.953Z,3052.00
2019-05-18T06:43:10.301Z,2928.00
2019-05-18T06:44:10.284Z,2948.00
2019-05-18T06:45:10.247Z,2988.00
2019-05-18T06:46:10.219Z,3072.00
2019-05-18T06:47:10.166Z,3184.00
2019-05-18T06:48:10.146Z,3332.00
2019-05-18T06:49:10.581Z,3488.00
2019-05-18T06:50:12.325Z,3652.00
2019-05-18T06:51:10.050Z,3780.00
2019-05-18T06:52:10.024Z,3864.00
2019-05-18T06:53:10.003Z,3916.00
2019-05-18T06:54:09.975Z,3928.00
2019-05-18T06:55:10.002Z,3940.00
2019-05-18T06:56:09.909Z,3952.00
2019-05-18T06:57:09.871Z,3976.00
2019-05-18T06:58:09.839Z,3968.00
2019-05-18T06:59:09.809Z,3956.00
2019-05-18T07:00:09.779Z,3956.00
2019-05-18T07:01:09.753Z,3964.00
2019-05-18T07:02:09.726Z,4024.00
2019-05-18T07:03:09.710Z,4092.00
2019-05-18T07:04:09.659Z,4192.00
2019-05-18T07:05:09.649Z,4320.00
2019-05-18T07:06:09.645Z,4432.00
2019-05-18T07:07:10.620Z,4528.00
2019-05-18T07:08:09.552Z,4596.00
2019-05-18T07:09:14.063Z,4612.00
2019-05-18T07:10:09.483Z,4584.00
2019-05-18T07:11:09.864Z,4516.00
2019-05-18T07:12:09.441Z,4440.00
2019-05-18T07:13:09.403Z,4380.00
2019-05-18T07:14:09.381Z,4308.00
2019-05-18T07:15:09.336Z,4228.00
2019-05-18T07:16:09.314Z,4156.00
2019-05-18T07:17:09.280Z,4104.00
2019-05-18T07:18:09.254Z,4108.00
2019-05-18T07:19:09.221Z,4140.00
2019-05-18T07:20:09.252Z,4188.00
2019-05-18T07:21:21.313Z,4240.00
2019-05-18T07:22:09.189Z,4288.00
2019-05-18T07:23:09.119Z,4328.00
2019-05-18T07:24:09.121Z,4376.00
2019-05-18T07:25:09.111Z,4416.00
2019-05-18T07:26:09.028Z,4464.00
2019-05-18T07:27:09.005Z,4516.00
2019-05-18T07:28:08.965Z,4612.00
2019-05-18T07:29:09.009Z,4724.00
2019-05-18T07:30:08.983Z,4872.00
2019-05-18T07:31:08.946Z,5060.00
2019-05-18T07:32:08.920Z,5296.00
2019-05-18T07:33:08.869Z,5632.00
2019-05-18T07:34:08.835Z,5960.00
2019-05-18T07:35:08.755Z,6120.00
2019-05-18T07:36:08.742Z,6344.00
2019-05-18T07:37:08.755Z,6560.00
2019-05-18T07:38:08.707Z,6820.00
2019-05-18T07:39:08.649Z,6764.00
2019-05-18T07:40:09.014Z,6944.00
2019-05-18T07:41:08.579Z,6904.00
2019-05-18T07:42:08.610Z,7028.00
2019-05-18T07:43:08.521Z,7096.00
2019-05-18T07:44:08.499Z,7212.00
2019-05-18T07:45:08.470Z,7340.00
2019-05-18T07:46:08.905Z,7456.00
2019-05-18T07:47:08.409Z,7520.00
2019-05-18T07:48:08.386Z,7604.00
2019-05-18T07:49:08.382Z,7580.00
2019-05-18T07:50:08.331Z,7648.00
2019-05-18T07:51:08.307Z,8000.00
2019-05-18T07:52:08.296Z,8024.00
2019-05-18T07:53:08.245Z,8100.00
2019-05-18T07:54:08.501Z,8040.00
2019-05-18T07:55:08.189Z,8052.00
2019-05-18T07:56:08.169Z,7996.00
2019-05-18T07:57:08.134Z,8056.00
2019-05-18T07:58:08.101Z,7752.00
2019-05-18T07:59:08.074Z,7744.00
2019-05-18T08:00:08.076Z,7732.00
2019-05-18T08:01:08.030Z,7576.00
2019-05-18T08:02:07.997Z,7040.00
2019-05-18T08:03:07.975Z,6712.00
2019-05-18T08:04:07.939Z,6612.00
2019-05-18T08:05:07.913Z,6432.00
2019-05-18T08:06:07.900Z,6252.00
2019-05-18T08:07:07.858Z,6100.00
2019-05-18T08:08:07.836Z,5912.00
2019-05-18T08:09:07.813Z,5752.00
2019-05-18T08:10:07.789Z,5912.00
2019-05-18T08:11:07.750Z,5836.00
2019-05-18T08:12:07.769Z,5816.00
2019-05-18T08:13:07.768Z,5824.00
2019-05-18T08:14:07.666Z,5752.00
2019-05-18T08:15:07.644Z,5484.00
2019-05-18T08:16:07.612Z,5692.00
2019-05-18T08:17:07.578Z,5672.00
2019-05-18T08:18:07.590Z,5860.00
2019-05-18T08:19:07.535Z,5952.00
2019-05-18T08:20:07.498Z,5952.00
2019-05-18T08:21:07.474Z,6172.00
2019-05-18T08:22:07.442Z,6548.00
2019-05-18T08:23:07.432Z,6784.00
2019-05-18T08:24:07.389Z,6968.00
2019-05-18T08:25:07.365Z,7088.00
2019-05-18T08:26:07.333Z,7096.00
2019-05-18T08:27:07.315Z,7096.00
2019-05-18T08:28:07.282Z,6908.00
2019-05-18T08:29:07.256Z,7020.00
2019-05-18T08:30:07.232Z,6828.00
2019-05-18T08:31:07.199Z,6324.00
2019-05-18T08:32:07.169Z,6508.00
2019-05-18T08:33:07.153Z,6176.00
2019-05-18T08:34:07.118Z,6384.00
2019-05-18T08:35:07.092Z,6332.00
2019-05-18T08:36:07.066Z,6164.00
2019-05-18T08:37:07.035Z,5980.00
2019-05-18T08:38:07.013Z,5800.00
2019-05-18T08:39:07.078Z,5536.00
2019-05-18T08:40:06.956Z,5204.00
2019-05-18T08:41:06.937Z,5244.00
2019-05-18T08:42:06.984Z,5256.00
2019-05-18T08:43:06.875Z,5180.00
2019-05-18T08:44:06.857Z,5084.00
2019-05-18T08:45:06.821Z,4964.00
2019-05-18T08:46:06.793Z,4556.00
2019-05-18T08:47:06.763Z,4300.00
2019-05-18T08:48:06.744Z,4372.00
2019-05-18T08:49:06.713Z,4392.00
2019-05-18T08:50:06.687Z,4624.00
2019-05-18T08:51:06.661Z,4744.00
2019-05-18T08:52:08.599Z,5068.00
2019-05-18T08:53:06.605Z,5008.00
2019-05-18T08:54:06.576Z,5048.00
2019-05-18T08:55:06.551Z,5188.00
2019-05-18T08:56:06.580Z,5216.00
2019-05-18T08:57:06.495Z,5168.00
2019-05-18T08:58:06.466Z,5192.00
2019-05-18T08:59:06.457Z,5048.00
2019-05-18T09:00:06.415Z,5056.00
2019-05-18T09:01:06.386Z,5036.00
2019-05-18T09:02:06.366Z,5072.00
2019-05-18T09:03:06.328Z,5048.00
2019-05-18T09:04:06.304Z,5004.00
2019-05-18T09:05:06.301Z,5032.00
2019-05-18T09:06:06.247Z,4976.00
2019-05-18T09:07:06.230Z,5044.00
2019-05-18T09:08:06.188Z,4972.00
2019-05-18T09:09:06.182Z,4988.00
2019-05-18T09:10:06.135Z,5016.00
2019-05-18T09:11:06.108Z,5148.00
2019-05-18T09:12:06.087Z,5200.00
2019-05-18T09:13:06.055Z,5152.00
2019-05-18T09:14:06.032Z,5116.00
2019-05-18T09:15:05.998Z,5076.00
2019-05-18T09:16:05.974Z,5140.00
2019-05-18T09:17:05.948Z,5260.00
2019-05-18T09:18:05.933Z,5248.00
2019-05-18T09:19:05.892Z,5388.00
2019-05-18T09:20:05.862Z,5360.00
2019-05-18T09:21:05.844Z,5444.00
2019-05-18T09:22:05.810Z,5536.00
2019-05-18T09:23:05.789Z,5576.00
2019-05-18T09:24:05.759Z,5676.00
2019-05-18T09:25:05.749Z,5736.00
2019-05-18T09:26:05.698Z,5828.00
2019-05-18T09:27:05.686Z,5936.00
2019-05-18T09:28:05.654Z,6044.00
2019-05-18T09:29:05.619Z,6316.00
2019-05-18T09:30:05.677Z,6316.00
2019-05-18T09:31:05.572Z,6588.00
2019-05-18T09:32:05.547Z,6624.00
2019-05-18T09:33:05.545Z,6832.00
2019-05-18T09:34:05.490Z,6876.00
2019-05-18T09:35:05.459Z,7024.00
2019-05-18T09:36:05.434Z,7044.00
2019-05-18T09:37:05.414Z,6924.00
2019-05-18T09:38:05.375Z,6928.00
2019-05-18T09:39:05.354Z,6768.00
2019-05-18T09:40:05.330Z,6640.00
2019-05-18T09:41:05.299Z,6612.00
2019-05-18T09:42:05.279Z,6612.00
2019-05-18T09:43:05.320Z,6508.00
2019-05-18T09:44:05.223Z,6604.00
2019-05-18T09:45:05.198Z,6588.00
2019-05-18T09:46:05.167Z,6508.00
2019-05-18T09:47:05.140Z,6596.00
2019-05-18T09:48:05.231Z,6532.00
2019-05-18T09:49:05.086Z,6812.00
2019-05-18T09:50:05.066Z,6496.00
2019-05-18T09:51:05.040Z,6564.00
2019-05-18T09:52:05.009Z,5892.00
2019-05-18T09:53:05.512Z,5584.00
2019-05-18T09:54:04.974Z,5436.00
2019-05-18T09:55:04.935Z,5376.00
2019-05-18T09:56:04.911Z,5200.00
2019-05-18T09:57:04.889Z,5348.00
2019-05-18T09:58:04.851Z,5876.00
2019-05-18T09:59:04.830Z,5756.00
2019-05-18T10:00:04.799Z,5596.00
2019-05-18T10:01:04.770Z,5476.00
2019-05-18T10:02:04.755Z,5372.00
2019-05-18T10:03:04.717Z,5280.00
2019-05-18T10:04:04.691Z,5216.00
2019-05-18T10:05:04.669Z,5148.00
2019-05-18T10:06:04.650Z,5060.00
2019-05-18T10:07:04.625Z,4976.00
2019-05-18T10:08:04.583Z,4920.00
2019-05-18T10:09:04.560Z,4880.00
2019-05-18T10:10:04.538Z,4864.00
2019-05-18T10:11:04.511Z,4868.00
2019-05-18T10:12:04.485Z,4876.00
2019-05-18T10:13:04.458Z,5128.00
2019-05-18T10:14:04.432Z,5264.00
2019-05-18T10:15:04.409Z,5280.00
2019-05-18T10:16:04.374Z,5224.00
2019-05-18T10:17:04.354Z,5100.00
2019-05-18T10:18:04.325Z,5036.00
2019-05-18T10:19:04.298Z,4988.00
2019-05-18T10:20:04.274Z,4980.00
2019-05-18T10:21:04.273Z,4944.00
2019-05-18T10:22:04.270Z,4924.00
2019-05-18T10:23:12.419Z,4972.00
2019-05-18T10:24:04.227Z,5036.00
2019-05-18T10:25:04.136Z,5052.00
2019-05-18T10:26:04.111Z,4992.00
2019-05-18T10:27:04.088Z,4840.00
2019-05-18T10:28:04.059Z,4840.00
2019-05-18T10:29:04.033Z,5444.00
2019-05-18T10:30:04.011Z,5752.00
2019-05-18T10:31:03.989Z,5892.00
2019-05-18T10:32:03.958Z,5948.00
2019-05-18T10:33:04.004Z,5636.00
2019-05-18T10:34:03.907Z,5408.00
2019-05-18T10:35:03.901Z,5828.00
2019-05-18T10:36:03.948Z,5808.00
2019-05-18T10:37:03.828Z,5748.00
2019-05-18T10:38:03.803Z,5664.00
2019-05-18T10:39:03.775Z,5768.00
2019-05-18T10:40:03.751Z,5812.00
2019-05-18T10:41:03.726Z,5952.00
2019-05-18T10:42:03.753Z,5828.00
2019-05-18T10:43:03.676Z,5560.00
2019-05-18T10:44:03.647Z,5532.00
2019-05-18T10:45:03.622Z,5236.00
2019-05-18T10:46:03.598Z,5440.00
2019-05-18T10:47:03.564Z,5944.00
2019-05-18T10:48:03.566Z,6196.00
2019-05-18T10:49:03.530Z,6500.00
2019-05-18T10:50:03.495Z,6456.00
2019-05-18T10:51:05.550Z,6772.00
2019-05-18T10:52:03.437Z,6904.00
2019-05-18T10:53:03.422Z,7260.00
2019-05-18T10:54:03.386Z,7656.00
2019-05-18T10:55:03.360Z,7948.00
2019-05-18T10:56:03.368Z,8156.00
2019-05-18T10:57:03.315Z,8032.00
2019-05-18T10:58:03.293Z,7964.00
2019-05-18T10:59:03.264Z,8136.00
2019-05-18T11:00:03.285Z,7896.00
2019-05-18T11:01:03.235Z,7836.00
2019-05-18T11:02:03.203Z,7700.00
2019-05-18T11:03:03.264Z,7192.00
2019-05-18T11:04:03.146Z,6920.00
2019-05-18T11:05:03.120Z,7536.00
2019-05-18T11:06:03.089Z,7668.00
2019-05-18T11:07:03.075Z,8220.00
2019-05-18T11:08:03.080Z,8844.00
2019-05-18T11:09:03.021Z,9416.00
2019-05-18T11:10:02.996Z,9592.00
2019-05-18T11:11:02.972Z,9616.00
2019-05-18T11:12:02.944Z,9952.00
2019-05-18T11:13:02.924Z,9016.00
2019-05-18T11:14:02.913Z,9748.00
2019-05-18T11:15:02.974Z,10064.00
2019-05-18T11:16:02.951Z,10904.00
2019-05-18T11:17:02.908Z,10236.00
2019-05-18T11:18:02.869Z,10392.00
2019-05-18T11:19:02.833Z,10456.00
2019-05-18T11:20:02.836Z,10172.00
2019-05-18T11:21:02.791Z,9824.00
2019-05-18T11:22:02.793Z,9324.00
2019-05-18T11:23:02.767Z,9100.00
2019-05-18T11:24:02.753Z,8716.00
2019-05-18T11:25:02.807Z,8344.00
2019-05-18T11:26:02.696Z,8256.00
2019-05-18T11:27:02.783Z,8296.00
2019-05-18T11:28:02.683Z,8264.00
2019-05-18T11:29:02.649Z,8244.00
2019-05-18T11:30:02.834Z,8188.00
2019-05-18T11:31:02.562Z,8336.00
2019-05-18T11:32:02.546Z,8356.00
2019-05-18T11:33:02.515Z,8280.00
2019-05-18T11:34:02.507Z,8680.00
2019-05-18T11:35:02.461Z,9152.00
2019-05-18T11:36:02.456Z,10924.00
2019-05-18T11:37:03.256Z,11980.00
2019-05-18T11:38:02.409Z,11984.00
2019-05-18T11:39:02.391Z,10056.00
2019-05-18T11:40:02.342Z,11260.00
2019-05-18T11:41:02.351Z,10964.00
2019-05-18T11:42:02.318Z,10728.00
2019-05-18T11:43:02.290Z,10848.00
2019-05-18T11:44:02.272Z,11036.00
2019-05-18T11:45:02.275Z,11272.00
2019-05-18T11:46:02.360Z,11456.00
2019-05-18T11:47:02.201Z,11132.00
2019-05-18T11:48:02.198Z,9444.00
2019-05-18T11:49:02.151Z,11012.00
2019-05-18T11:50:02.177Z,8980.00
2019-05-18T11:51:02.125Z,8792.00
2019-05-18T11:52:02.088Z,8680.00
2019-05-18T11:53:02.128Z,8564.00
2019-05-18T11:54:02.091Z,8664.00
2019-05-18T11:55:02.015Z,8900.00
2019-05-18T11:56:01.984Z,9164.00
2019-05-18T11:57:02.029Z,9364.00
2019-05-18T11:58:01.962Z,9320.00
2019-05-18T11:59:01.938Z,9000.00
2019-05-18T12:00:02.118Z,9384.00
2019-05-18T12:01:01.915Z,9180.00
2019-05-18T12:02:01.977Z,8620.00
2019-05-18T12:03:01.861Z,8764.00
2019-05-18T12:04:01.853Z,11240.00
2019-05-18T12:05:01.821Z,10060.00
2019-05-18T12:06:01.794Z,9900.00
2019-05-18T12:07:01.774Z,9544.00
2019-05-18T12:08:01.744Z,9416.00
2019-05-18T12:09:01.735Z,8928.00
2019-05-18T12:10:01.700Z,9048.00
2019-05-18T12:11:01.685Z,9896.00
2019-05-18T12:12:01.648Z,10280.00
2019-05-18T12:13:01.629Z,8300.00
2019-05-18T12:14:01.628Z,7096.00
2019-05-18T12:15:01.602Z,6564.00
2019-05-18T12:16:01.511Z,6356.00
2019-05-18T12:17:01.481Z,6320.00
2019-05-18T12:18:01.454Z,6532.00
2019-05-18T12:19:01.435Z,7032.00
2019-05-18T12:20:01.426Z,7828.00
2019-05-18T12:21:01.387Z,8808.00
2019-05-18T12:22:01.389Z,9588.00
2019-05-18T12:23:01.362Z,9952.00
2019-05-18T12:24:14.233Z,10176.00
2019-05-18T12:25:01.307Z,9632.00
2019-05-18T12:26:01.276Z,9340.00